Time;durP1;ratioP1;P1;durP2;ratioP2;P2;SDS_P1;SDS_P2;PMS_P1;PMS_P2;Temp;Humidity;BMP_temperature;BMP_pressure;BME280_temperature;BME280_humidity;BME280_pressure;Samples;Min_cycle;Max_cycle;Signal;HPM_P1;HPM_P2
2022/06/25 00:00:34;;;;;;;5.33;2.57;;;21.30;73.40;;;;;;5025942;28;20568;-81
2022/06/25 00:03:08;;;;;;;6.73;2.30;;;21.30;73.40;;;;;;5016197;28;20486;-81
2022/06/25 00:05:36;;;;;;;4.20;2.23;;;21.30;73.40;;;;;;5025068;28;20456;-80
2022/06/25 00:08:04;;;;;;;4.10;2.20;;;21.30;73.40;;;;;;5002024;28;20464;-80
2022/06/25 00:10:32;;;;;;;4.00;2.00;;;21.30;73.40;;;;;;5017897;28;20472;-80
2022/06/25 00:13:01;;;;;;;5.40;2.80;;;21.30;73.40;;;;;;5016968;28;20468;-81
2022/06/25 00:15:29;;;;;;;4.50;2.60;;;21.30;73.30;;;;;;5018785;28;20478;-80
2022/06/25 00:17:56;;;;;;;4.67;2.10;;;21.30;73.30;;;;;;5017433;28;20457;-80
2022/06/25 00:20:25;;;;;;;5.27;2.07;;;21.20;73.30;;;;;;5019626;28;20449;-80
2022/06/25 00:22:52;;;;;;;5.40;2.40;;;21.20;73.30;;;;;;5025386;28;20910;-80
2022/06/25 00:25:20;;;;;;;5.03;2.40;;;21.20;73.30;;;;;;5022217;28;20452;-80
2022/06/25 00:27:48;;;;;;;6.67;2.30;;;21.20;73.30;;;;;;5014640;28;20460;-80
2022/06/25 00:30:18;;;;;;;4.57;2.10;;;21.20;73.30;;;;;;5015951;28;20463;-80
2022/06/25 00:32:46;;;;;;;4.60;2.13;;;21.10;73.40;;;;;;5020853;28;20551;-80
2022/06/25 00:35:14;;;;;;;5.43;2.37;;;21.10;73.40;;;;;;5014032;28;20475;-80
2022/06/25 00:37:42;;;;;;;4.10;2.40;;;21.10;73.40;;;;;;5003641;28;20452;-80
2022/06/25 00:40:12;;;;;;;5.10;2.90;;;21.00;73.40;;;;;;5012811;28;20991;-81
2022/06/25 00:42:42;;;;;;;5.23;2.40;;;21.00;73.50;;;;;;5019626;28;20498;-80
2022/06/25 00:45:11;;;;;;;4.50;2.77;;;21.00;73.50;;;;;;5018088;28;20463;-80
2022/06/25 00:47:40;;;;;;;5.63;3.30;;;21.00;73.60;;;;;;5018792;28;20461;-80
2022/06/25 00:50:09;;;;;;;5.00;2.50;;;21.00;73.60;;;;;;5022052;28;21286;-82
2022/06/25 00:52:42;;;;;;;4.93;2.47;;;21.00;73.80;;;;;;5019752;28;20479;-81
2022/06/25 00:55:15;;;;;;;5.03;2.83;;;21.00;73.80;;;;;;5021909;28;20489;-82
2022/06/25 00:57:44;;;;;;;4.77;2.40;;;20.90;73.80;;;;;;5021144;28;20457;-82
2022/06/25 01:00:15;;;;;;;5.20;3.07;;;20.90;73.60;;;;;;5001793;28;21286;-81
2022/06/25 01:02:46;;;;;;;8.80;2.70;;;20.90;73.70;;;;;;5018303;28;20570;-81
2022/06/25 01:05:16;;;;;;;7.60;2.80;;;20.90;73.90;;;;;;5023468;28;20838;-81
2022/06/25 01:07:46;;;;;;;5.93;2.40;;;20.90;73.90;;;;;;5020370;28;20460;-81
2022/06/25 01:10:14;;;;;;;5.40;2.87;;;20.90;74.00;;;;;;5022772;28;20460;-81
2022/06/25 01:12:42;;;;;;;4.40;2.57;;;20.90;74.00;;;;;;5024132;28;20480;-81
2022/06/25 01:15:16;;;;;;;4.40;2.50;;;20.90;74.10;;;;;;5019144;28;20516;-81
2022/06/25 01:17:47;;;;;;;4.50;2.50;;;20.80;74.20;;;;;;5021875;28;20546;-82
2022/06/25 01:20:16;;;;;;;5.53;2.90;;;20.90;74.20;;;;;;5015869;28;20523;-81
2022/06/25 01:22:46;;;;;;;4.33;2.53;;;20.90;74.30;;;;;;4999986;28;20488;-81
2022/06/25 01:25:15;;;;;;;4.63;2.67;;;20.90;74.30;;;;;;5021660;28;20470;-81
2022/06/25 01:27:43;;;;;;;4.40;2.50;;;20.80;74.40;;;;;;5007424;28;20492;-81
2022/06/25 01:30:13;;;;;;;5.33;3.33;;;20.80;74.40;;;;;;5017200;28;20461;-81
2022/06/25 01:32:41;;;;;;;4.63;2.40;;;20.80;74.50;;;;;;5021688;28;20493;-81
2022/06/25 01:35:09;;;;;;;4.20;2.40;;;20.80;74.50;;;;;;5024252;28;20875;-81
2022/06/25 01:41:32;;;;;;;5.27;2.90;;;20.80;74.60;;;;;;5017087;28;20443;-81
2022/06/25 01:44:00;;;;;;;5.30;2.87;;;20.80;74.70;;;;;;5024330;28;20500;-81
2022/06/25 01:46:29;;;;;;;4.50;3.00;;;20.90;74.70;;;;;;5022106;28;20472;-81
2022/06/25 01:48:57;;;;;;;5.03;2.40;;;20.90;74.70;;;;;;5019939;28;21209;-81
2022/06/25 01:51:25;;;;;;;4.97;2.93;;;20.90;74.70;;;;;;5018344;28;20464;-80
2022/06/25 01:53:52;;;;;;;7.63;3.10;;;20.90;74.70;;;;;;5014213;28;20477;-80
2022/06/25 01:56:20;;;;;;;7.27;3.40;;;20.90;74.70;;;;;;5020974;28;20469;-80
2022/06/25 01:58:50;;;;;;;4.77;2.87;;;20.80;74.60;;;;;;5018601;28;20475;-80
2022/06/25 02:01:18;;;;;;;6.47;2.80;;;20.80;74.70;;;;;;5018298;28;20492;-80
2022/06/25 02:03:48;;;;;;;6.00;3.47;;;20.80;74.70;;;;;;5016640;28;21056;-80
2022/06/25 02:06:16;;;;;;;5.90;2.40;;;20.80;74.70;;;;;;5015526;28;20489;-81
2022/06/25 02:08:44;;;;;;;4.40;2.60;;;20.80;74.70;;;;;;5018881;28;20566;-80
2022/06/25 02:11:12;;;;;;;4.57;2.53;;;20.80;74.70;;;;;;5017302;28;20461;-81
2022/06/25 02:13:40;;;;;;;6.77;2.40;;;20.80;74.70;;;;;;5025935;28;20828;-80
2022/06/25 02:16:09;;;;;;;4.60;2.90;;;20.80;74.70;;;;;;4997980;28;20487;-80
2022/06/25 02:18:38;;;;;;;6.73;3.13;;;20.80;74.70;;;;;;5018582;28;21118;-80
2022/06/25 02:21:06;;;;;;;4.40;2.50;;;20.80;74.70;;;;;;5015243;28;20453;-80
2022/06/25 02:23:33;;;;;;;6.20;2.90;;;20.70;74.70;;;;;;5017961;28;21012;-80
2022/06/25 02:26:01;;;;;;;5.13;2.90;;;20.70;74.70;;;;;;5014876;28;20471;-80
2022/06/25 02:28:29;;;;;;;4.07;2.47;;;20.70;74.70;;;;;;4998886;28;20459;-79
2022/06/25 02:30:57;;;;;;;6.67;3.03;;;20.70;74.60;;;;;;5013598;28;20468;-80
2022/06/25 02:33:28;;;;;;;5.10;2.60;;;20.60;74.50;;;;;;5017347;28;20472;-80
2022/06/25 02:35:56;;;;;;;5.03;2.77;;;20.60;74.50;;;;;;5023488;28;20460;-81
2022/06/25 02:38:24;;;;;;;5.10;2.93;;;20.60;74.50;;;;;;5016534;28;20520;-80
2022/06/25 02:40:54;;;;;;;5.70;2.73;;;20.60;74.50;;;;;;5020293;28;20454;-81
2022/06/25 02:43:25;;;;;;;5.23;2.90;;;20.60;74.60;;;;;;5017911;28;20477;-80
2022/06/25 02:46:16;;;;;;;4.87;2.50;;;20.50;74.60;;;;;;5015900;28;21052;-80
2022/06/25 02:48:45;;;;;;;5.57;2.60;;;20.50;74.70;;;;;;4995925;28;20464;-80
2022/06/25 02:51:15;;;;;;;4.90;2.40;;;20.50;74.70;;;;;;5016159;28;20464;-80
2022/06/25 02:53:43;;;;;;;5.13;2.50;;;20.50;74.70;;;;;;5013997;28;20471;-80
2022/06/25 02:58:58;;;;;;;9.63;2.80;;;20.50;74.90;;;;;;4997573;28;20467;-80
2022/06/25 03:01:33;;;;;;;4.80;2.70;;;20.50;74.90;;;;;;5015998;28;20480;-80
2022/06/25 03:04:02;;;;;;;4.70;2.40;;;20.50;75.00;;;;;;5029456;28;20483;-80
2022/06/25 03:06:30;;;;;;;6.70;2.70;;;20.50;75.10;;;;;;5014243;28;20528;-80
2022/06/25 03:08:59;;;;;;;5.60;3.20;;;20.50;75.10;;;;;;5019246;28;21229;-80
2022/06/25 03:11:27;;;;;;;6.30;3.07;;;20.50;75.10;;;;;;4999031;28;20456;-81
2022/06/25 03:13:55;;;;;;;6.43;3.47;;;20.50;75.20;;;;;;5019231;28;20487;-80
2022/06/25 03:16:23;;;;;;;5.40;2.83;;;20.50;75.20;;;;;;5015997;28;20994;-80
2022/06/25 03:18:52;;;;;;;5.93;2.57;;;20.50;75.30;;;;;;5017562;28;20462;-81
2022/06/25 03:21:39;;;;;;;4.90;2.80;;;20.50;75.30;;;;;;5001254;28;20964;-80
2022/06/25 03:24:08;;;;;;;6.73;3.37;;;20.50;75.30;;;;;;5018828;28;20481;-80
2022/06/25 03:26:36;;;;;;;4.90;2.90;;;20.50;75.20;;;;;;5020175;28;20465;-80
2022/06/25 03:29:05;;;;;;;5.70;3.37;;;20.50;75.10;;;;;;5022759;28;20455;-80
2022/06/25 03:31:36;;;;;;;6.50;3.07;;;20.40;75.10;;;;;;5019276;28;20475;-80
2022/06/25 03:34:24;;;;;;;4.50;2.97;;;20.40;75.10;;;;;;5020226;28;20484;-81
2022/06/25 03:36:54;;;;;;;4.70;3.00;;;20.30;75.00;;;;;;5021993;28;20468;-80
2022/06/25 03:39:22;;;;;;;7.50;3.07;;;20.20;75.00;;;;;;5016644;28;20474;-80
2022/06/25 03:41:52;;;;;;;8.43;3.23;;;20.20;75.00;;;;;;5002478;28;20968;-80
2022/06/25 03:44:33;;;;;;;6.63;2.93;;;20.20;74.90;;;;;;4997416;28;20586;-80
2022/06/25 03:47:10;;;;;;;5.20;3.03;;;20.10;75.00;;;;;;5016610;28;20476;-80
2022/06/25 03:49:39;;;;;;;5.07;2.60;;;20.10;74.90;;;;;;5013718;28;20468;-80
2022/06/25 03:52:13;;;;;;;6.30;3.30;;;20.00;74.80;;;;;;5020865;28;20491;-80
2022/06/25 03:54:41;;;;;;;6.20;2.90;;;20.00;74.80;;;;;;5020800;28;20443;-81
2022/06/25 03:57:10;;;;;;;7.70;2.60;;;20.00;74.80;;;;;;5016683;28;20509;-80
2022/06/25 03:59:51;;;;;;;5.97;3.00;;;19.90;74.90;;;;;;5017390;28;20472;-81
2022/06/25 04:02:24;;;;;;;5.63;2.60;;;19.90;75.00;;;;;;5016928;28;21048;-81
2022/06/25 04:05:11;;;;;;;5.17;3.10;;;20.00;75.00;;;;;;5014101;28;20626;-81
2022/06/25 04:07:49;;;;;;;8.10;3.27;;;20.00;75.00;;;;;;5019653;28;20463;-80
2022/06/25 04:10:18;;;;;;;9.53;3.10;;;20.00;75.10;;;;;;5004573;28;20557;-81
2022/06/25 04:12:45;;;;;;;9.20;3.13;;;20.10;75.10;;;;;;5014038;28;21066;-80
2022/06/25 04:15:15;;;;;;;9.47;3.40;;;20.10;75.10;;;;;;5002574;28;20511;-82
2022/06/25 04:17:43;;;;;;;4.80;3.00;;;20.20;75.10;;;;;;5003213;28;20452;-82
2022/06/25 04:20:12;;;;;;;4.87;2.77;;;20.20;75.10;;;;;;5013044;28;20474;-82
2022/06/25 04:22:41;;;;;;;6.90;3.40;;;20.20;75.10;;;;;;5002600;28;20489;-81
2022/06/25 04:25:10;;;;;;;5.67;2.80;;;20.30;75.20;;;;;;5008455;28;20572;-81
2022/06/25 04:30:24;;;;;;;4.40;2.80;;;20.50;75.60;;;;;;5025470;28;21015;-81
2022/06/25 04:32:53;;;;;;;6.20;3.33;;;20.70;75.70;;;;;;5015208;28;20502;-79
2022/06/25 04:35:27;;;;;;;5.33;2.83;;;20.90;75.80;;;;;;5009445;28;20465;-79
2022/06/25 04:37:59;;;;;;;4.63;2.90;;;21.10;75.90;;;;;;5014952;28;21007;-79
2022/06/25 04:40:29;;;;;;;6.93;3.30;;;21.30;75.70;;;;;;5018004;28;20466;-80
2022/06/25 04:42:58;;;;;;;5.23;2.90;;;21.40;75.70;;;;;;5004288;28;20854;-80
2022/06/25 04:45:26;;;;;;;4.50;2.50;;;21.70;75.50;;;;;;4999167;28;20481;-80
2022/06/25 04:48:10;;;;;;;4.80;2.70;;;21.90;75.40;;;;;;5000150;28;20471;-80
2022/06/25 04:51:02;;;;;;;5.67;3.20;;;22.10;75.20;;;;;;5020412;28;20464;-80
2022/06/25 04:53:32;;;;;;;4.90;3.20;;;22.20;74.80;;;;;;4997729;28;20487;-80
2022/06/25 04:56:06;;;;;;;5.67;3.20;;;22.20;74.40;;;;;;5019462;28;20555;-80
2022/06/25 04:58:34;;;;;;;6.63;2.47;;;22.20;74.10;;;;;;5001988;28;20471;-81
2022/06/25 05:01:21;;;;;;;5.67;3.47;;;22.20;73.90;;;;;;5015659;28;20479;-80
2022/06/25 05:03:49;;;;;;;4.70;2.67;;;22.10;73.80;;;;;;5020296;28;20480;-80
2022/06/25 05:06:18;;;;;;;6.33;3.40;;;22.00;73.80;;;;;;5020788;28;21303;-80
2022/06/25 05:08:47;;;;;;;6.57;2.90;;;22.00;73.80;;;;;;5014633;28;20453;-81
2022/06/25 05:11:15;;;;;;;4.60;2.63;;;21.90;73.80;;;;;;5013614;28;20517;-80
2022/06/25 05:13:44;;;;;;;5.60;2.80;;;21.90;73.80;;;;;;5025805;28;20618;-80
2022/06/25 05:16:12;;;;;;;8.40;3.20;;;21.80;73.80;;;;;;5019352;28;20496;-80
2022/06/25 05:18:40;;;;;;;7.00;3.70;;;21.80;73.80;;;;;;5017994;28;20484;-80
2022/06/25 05:21:08;;;;;;;6.00;3.30;;;21.80;74.00;;;;;;5015252;28;20462;-80
2022/06/25 05:23:43;;;;;;;6.17;3.13;;;21.90;74.50;;;;;;5015045;28;20564;-80
2022/06/25 05:26:12;;;;;;;6.03;2.70;;;22.10;74.70;;;;;;5005130;28;20471;-81
2022/06/25 05:28:40;;;;;;;5.40;3.27;;;22.30;74.70;;;;;;5022666;28;20988;-82
2022/06/25 05:31:09;;;;;;;9.50;3.00;;;22.50;74.40;;;;;;5002105;28;21077;-80
2022/06/25 05:33:37;;;;;;;4.73;2.60;;;22.70;74.30;;;;;;5018033;28;20878;-80
2022/06/25 05:36:06;;;;;;;4.63;2.57;;;22.90;74.20;;;;;;5020370;28;20462;-80
2022/06/25 05:38:35;;;;;;;5.90;3.00;;;23.10;74.40;;;;;;5004272;28;20467;-80
2022/06/25 05:41:08;;;;;;;5.63;2.53;;;23.40;75.00;;;;;;5020991;28;20472;-79
2022/06/25 05:43:38;;;;;;;4.43;2.50;;;23.80;75.00;;;;;;5021321;28;20566;-80
2022/06/25 05:46:07;;;;;;;5.03;2.80;;;24.70;73.50;;;;;;4999273;28;20497;-78
2022/06/25 05:48:35;;;;;;;4.90;2.37;;;25.90;71.10;;;;;;4995975;28;20468;-78
2022/06/25 05:51:03;;;;;;;4.63;2.53;;;27.00;68.60;;;;;;5023867;28;20452;-78
2022/06/25 05:53:32;;;;;;;6.13;2.20;;;28.00;66.60;;;;;;5017439;28;20504;-78
2022/06/25 05:56:00;;;;;;;4.80;2.13;;;29.00;64.80;;;;;;5017220;28;20453;-78
2022/06/25 05:58:27;;;;;;;6.10;2.10;;;29.80;63.40;;;;;;5018771;28;20464;-78
2022/06/25 06:00:57;;;;;;;5.57;2.13;;;30.50;62.10;;;;;;5018082;28;20497;-78
2022/06/25 06:03:25;;;;;;;7.37;2.50;;;31.20;60.80;;;;;;5015596;28;20482;-78
2022/06/25 06:05:53;;;;;;;5.47;2.10;;;31.60;59.60;;;;;;5012596;28;20491;-78
2022/06/25 06:08:21;;;;;;;6.93;2.10;;;32.00;58.60;;;;;;4997564;28;20470;-78
2022/06/25 06:10:48;;;;;;;4.30;2.10;;;32.10;57.90;;;;;;5016032;28;20576;-78
2022/06/25 06:13:16;;;;;;;4.10;2.00;;;31.90;57.80;;;;;;5015752;28;20532;-78
2022/06/25 06:15:44;;;;;;;4.80;1.80;;;31.50;57.90;;;;;;5013735;28;20494;-78
2022/06/25 06:18:14;;;;;;;3.83;2.00;;;30.90;58.30;;;;;;5004152;28;21125;-78
2022/06/25 06:20:42;;;;;;;6.57;2.10;;;30.50;58.70;;;;;;5013072;28;20883;-78
2022/06/25 06:23:10;;;;;;;4.73;2.20;;;30.10;58.90;;;;;;5012450;28;20497;-78
2022/06/25 06:25:38;;;;;;;3.90;1.70;;;29.60;59.20;;;;;;5017260;28;21019;-78
2022/06/25 06:28:06;;;;;;;4.20;2.30;;;29.20;59.50;;;;;;5015755;28;20490;-78
2022/06/25 06:30:34;;;;;;;4.13;1.80;;;28.80;60.00;;;;;;5011854;28;20483;-78
2022/06/25 06:33:04;;;;;;;4.90;2.00;;;28.40;60.20;;;;;;5015682;28;20873;-78
2022/06/25 06:35:33;;;;;;;4.43;2.03;;;27.90;60.40;;;;;;5015311;28;20460;-78
2022/06/25 06:38:01;;;;;;;4.33;2.30;;;27.40;60.80;;;;;;5013068;28;20471;-78
2022/06/25 06:40:29;;;;;;;4.90;1.73;;;26.90;61.30;;;;;;5018540;28;20462;-78
2022/06/25 06:42:57;;;;;;;7.47;2.30;;;26.50;61.80;;;;;;5013721;28;20478;-78
2022/06/25 06:45:25;;;;;;;7.67;2.50;;;26.20;62.40;;;;;;5015180;28;20474;-78
2022/06/25 06:47:53;;;;;;;5.10;2.60;;;25.90;62.80;;;;;;5016405;28;20488;-78
2022/06/25 06:50:21;;;;;;;4.50;2.50;;;25.60;63.20;;;;;;5017272;28;20967;-78
2022/06/25 06:52:50;;;;;;;5.80;2.50;;;25.40;63.70;;;;;;5014424;28;21013;-77
2022/06/25 06:55:18;;;;;;;5.43;2.33;;;25.20;64.10;;;;;;5017480;28;20441;-78
2022/06/25 06:57:46;;;;;;;4.73;2.50;;;25.10;64.50;;;;;;5018522;28;20473;-77
2022/06/25 07:00:17;;;;;;;6.73;2.30;;;24.90;64.80;;;;;;5014469;28;20479;-77
2022/06/25 07:02:45;;;;;;;4.53;2.37;;;24.80;65.10;;;;;;5015838;28;20906;-77
2022/06/25 07:05:13;;;;;;;6.03;2.73;;;24.70;65.40;;;;;;5015193;28;20483;-78
2022/06/25 07:07:41;;;;;;;6.40;2.67;;;24.70;65.70;;;;;;5015604;28;20470;-78
2022/06/25 07:10:11;;;;;;;5.00;2.70;;;24.60;65.90;;;;;;5015998;28;20473;-78
2022/06/25 07:12:39;;;;;;;5.53;2.40;;;24.50;66.10;;;;;;5015500;28;20488;-77
2022/06/25 07:15:08;;;;;;;4.50;2.23;;;24.40;66.30;;;;;;5014952;28;20474;-78
2022/06/25 07:17:36;;;;;;;10.57;2.60;;;24.40;66.50;;;;;;5018634;28;20462;-77
2022/06/25 07:20:06;;;;;;;6.13;2.67;;;24.30;66.70;;;;;;5013915;28;20846;-78
2022/06/25 07:22:34;;;;;;;4.60;2.60;;;24.10;66.80;;;;;;5014250;28;20555;-77
2022/06/25 07:25:02;;;;;;;4.40;2.43;;;24.00;66.90;;;;;;5013412;28;20835;-77
2022/06/25 07:27:32;;;;;;;6.03;3.13;;;23.90;67.30;;;;;;5015591;28;20459;-77
2022/06/25 07:30:00;;;;;;;5.33;3.07;;;23.90;67.40;;;;;;5018290;28;20465;-78
2022/06/25 07:32:28;;;;;;;4.73;2.73;;;23.90;67.70;;;;;;5011412;28;20495;-77
2022/06/25 07:34:56;;;;;;;5.50;2.57;;;23.90;67.80;;;;;;5010355;28;20565;-78
2022/06/25 07:37:24;;;;;;;4.73;2.80;;;23.90;67.90;;;;;;5015694;28;20482;-78
2022/06/25 07:39:52;;;;;;;5.30;3.00;;;24.00;68.10;;;;;;5015273;28;20476;-78
2022/06/25 07:42:20;;;;;;;4.63;2.60;;;24.00;68.10;;;;;;5014710;28;20459;-77
2022/06/25 07:44:49;;;;;;;4.60;2.73;;;24.00;68.10;;;;;;5014882;28;21286;-78
2022/06/25 07:47:17;;;;;;;7.73;3.20;;;24.10;68.00;;;;;;5016094;28;20483;-77
2022/06/25 07:52:30;;;;;;;4.87;2.90;;;24.10;68.00;;;;;;5012212;28;20466;-77
2022/06/25 07:54:58;;;;;;;6.40;2.70;;;24.00;68.10;;;;;;5011725;28;20463;-77
2022/06/25 07:57:26;;;;;;;4.80;2.80;;;24.00;68.20;;;;;;5018801;28;20465;-77
2022/06/25 07:59:56;;;;;;;4.87;2.63;;;24.10;68.30;;;;;;5016173;28;20464;-78
2022/06/25 08:02:23;;;;;;;4.40;2.43;;;24.10;68.30;;;;;;5010680;28;20485;-77
2022/06/25 08:04:51;;;;;;;6.40;2.50;;;24.10;68.30;;;;;;5012230;28;20463;-77
2022/06/25 08:07:19;;;;;;;4.90;2.90;;;24.10;68.10;;;;;;4995527;28;20848;-77
2022/06/25 08:09:47;;;;;;;6.20;2.50;;;24.20;68.20;;;;;;5011774;28;20458;-77
2022/06/25 08:12:15;;;;;;;7.63;3.00;;;24.20;68.30;;;;;;5012817;28;20451;-77
2022/06/25 08:14:43;;;;;;;9.03;2.40;;;24.20;68.30;;;;;;5011731;28;20483;-77
2022/06/25 08:17:13;;;;;;;7.00;2.57;;;24.30;68.20;;;;;;5010472;28;20469;-77
2022/06/25 08:19:41;;;;;;;5.43;2.60;;;24.30;68.10;;;;;;5010227;28;20516;-77
2022/06/25 08:22:08;;;;;;;5.77;2.83;;;24.30;67.90;;;;;;4995660;28;20476;-77
2022/06/25 08:24:36;;;;;;;5.63;2.90;;;24.40;67.90;;;;;;5015954;28;20497;-77
2022/06/25 08:27:04;;;;;;;6.13;3.23;;;24.40;67.80;;;;;;5001618;28;20499;-77
2022/06/25 08:29:32;;;;;;;5.40;2.83;;;24.40;67.80;;;;;;5018049;28;20477;-77
2022/06/25 08:32:00;;;;;;;4.30;2.50;;;24.30;67.80;;;;;;5015056;28;20489;-77
2022/06/25 08:34:30;;;;;;;5.03;2.70;;;24.30;67.80;;;;;;5015523;28;20573;-77
2022/06/25 08:36:58;;;;;;;6.67;2.43;;;24.40;67.80;;;;;;5015859;28;20475;-77
2022/06/25 08:39:26;;;;;;;4.93;2.30;;;24.40;67.70;;;;;;5015026;28;20460;-77
2022/06/25 08:41:54;;;;;;;5.43;2.43;;;24.40;67.50;;;;;;5013498;28;20506;-77
2022/06/25 08:44:22;;;;;;;7.30;2.73;;;24.40;67.50;;;;;;5014992;28;20584;-77
2022/06/25 08:46:51;;;;;;;4.77;2.10;;;24.40;67.30;;;;;;5007835;28;20478;-77
2022/06/25 08:49:20;;;;;;;5.87;2.83;;;24.40;67.20;;;;;;5010719;28;20459;-77
2022/06/25 08:51:50;;;;;;;5.80;3.27;;;24.40;67.00;;;;;;5010806;28;20465;-77
2022/06/25 08:54:20;;;;;;;5.13;2.40;;;24.40;67.10;;;;;;5011641;28;20481;-77
2022/06/25 08:56:48;;;;;;;5.60;2.67;;;24.50;67.00;;;;;;5014679;28;20469;-77
2022/06/25 08:59:17;;;;;;;4.93;2.20;;;24.40;66.90;;;;;;5013254;28;20464;-77
2022/06/25 09:01:45;;;;;;;6.60;2.80;;;24.50;66.90;;;;;;5014146;28;20536;-77
2022/06/25 09:04:13;;;;;;;6.43;2.50;;;24.50;66.80;;;;;;5012383;28;20490;-77
2022/06/25 09:06:41;;;;;;;7.17;3.13;;;24.50;66.70;;;;;;5011172;28;20481;-77
2022/06/25 09:09:15;;;;;;;5.67;2.93;;;24.50;66.70;;;;;;5020046;28;20470;-77
2022/06/25 09:11:55;;;;;;;4.83;2.70;;;24.60;66.60;;;;;;5017138;28;21114;-77
2022/06/25 09:14:25;;;;;;;4.40;2.47;;;24.70;66.60;;;;;;5018831;28;21006;-77
2022/06/25 09:16:56;;;;;;;5.30;2.80;;;24.70;66.30;;;;;;5013593;28;20482;-77
2022/06/25 09:19:29;;;;;;;5.30;2.53;;;24.70;66.20;;;;;;5015199;28;21152;-77
2022/06/25 09:21:58;;;;;;;5.60;2.17;;;24.60;65.70;;;;;;5014107;28;20484;-77
2022/06/25 09:24:40;;;;;;;4.73;2.77;;;24.50;65.60;;;;;;5014412;28;20968;-77
2022/06/25 09:27:08;;;;;;;4.50;2.30;;;24.50;65.70;;;;;;5002062;28;20479;-77
2022/06/25 09:29:40;;;;;;;4.80;2.20;;;24.60;65.70;;;;;;5016236;28;20467;-77
2022/06/25 09:32:08;;;;;;;5.80;2.30;;;24.60;65.70;;;;;;5018013;28;20471;-77
2022/06/25 09:34:38;;;;;;;5.10;2.43;;;24.70;65.60;;;;;;5016017;28;20545;-77
2022/06/25 09:37:24;;;;;;;4.63;2.27;;;24.80;65.50;;;;;;5012914;28;20462;-77
2022/06/25 09:39:54;;;;;;;5.47;2.20;;;24.90;65.50;;;;;;5015091;28;20458;-78
2022/06/25 09:42:28;;;;;;;5.43;2.20;;;24.90;65.50;;;;;;5022599;28;20447;-78
2022/06/25 09:45:04;;;;;;;5.07;2.30;;;25.10;65.30;;;;;;5021466;28;20467;-78
2022/06/25 09:47:36;;;;;;;4.40;2.30;;;25.20;65.20;;;;;;5017709;28;20495;-78
2022/06/25 09:50:12;;;;;;;4.70;2.40;;;25.20;65.10;;;;;;5016729;28;20464;-80
2022/06/25 09:52:50;;;;;;;8.73;3.27;;;25.30;64.90;;;;;;5019966;28;20480;-79
2022/06/25 09:55:21;;;;;;;12.63;2.70;;;25.30;64.80;;;;;;5017433;28;20470;-80
2022/06/25 09:57:49;;;;;;;6.73;3.10;;;25.20;64.90;;;;;;5015040;28;20449;-81
2022/06/25 10:00:18;;;;;;;6.90;3.40;;;25.20;64.90;;;;;;5018424;28;20516;-80
2022/06/25 10:02:48;;;;;;;5.90;2.80;;;25.10;64.80;;;;;;5018956;28;20474;-79
2022/06/25 10:05:18;;;;;;;7.80;3.13;;;25.10;64.90;;;;;;5019065;28;20470;-79
2022/06/25 10:08:00;;;;;;;5.80;2.63;;;25.10;65.00;;;;;;5015493;28;20486;-76
2022/06/25 10:10:34;;;;;;;6.23;2.70;;;25.10;65.00;;;;;;4999813;28;21030;-78
2022/06/25 10:13:03;;;;;;;6.13;2.97;;;25.20;65.00;;;;;;5020596;28;20531;-78
2022/06/25 10:15:32;;;;;;;6.53;3.17;;;25.30;64.90;;;;;;5021863;28;20463;-79
2022/06/25 10:18:02;;;;;;;11.77;5.07;;;25.40;64.30;;;;;;5024069;28;20461;-79
2022/06/25 10:20:31;;;;;;;9.00;5.83;;;25.30;64.30;;;;;;5015934;28;20458;-77
2022/06/25 10:23:01;;;;;;;10.40;3.93;;;25.40;64.10;;;;;;5020727;28;20525;-78
2022/06/25 10:25:31;;;;;;;5.83;3.30;;;25.30;63.90;;;;;;5005896;28;20459;-81
2022/06/25 10:28:08;;;;;;;26.57;11.10;;;25.30;63.90;;;;;;5004759;28;20472;-78
2022/06/25 10:30:43;;;;;;;10.50;3.77;;;25.30;63.90;;;;;;5023536;28;20479;-77
2022/06/25 10:33:11;;;;;;;5.13;2.67;;;25.30;63.80;;;;;;5023831;28;20571;-77
2022/06/25 10:35:41;;;;;;;5.90;2.30;;;25.30;63.60;;;;;;5026416;28;20471;-78
2022/06/25 10:38:11;;;;;;;5.40;2.83;;;25.30;63.50;;;;;;5010255;28;20451;-77
2022/06/25 10:42:58;;;;;;;5.60;2.27;;;25.30;63.50;;;;;;5025453;28;20486;-77
2022/06/25 10:43:49;;;;;;;5.10;2.20;;;25.30;63.40;;;;;;5024586;28;20493;-77
2022/06/25 10:46:26;;;;;;;4.20;1.97;;;25.40;63.40;;;;;;5005451;28;20461;-77
2022/06/25 10:49:03;;;;;;;7.20;2.40;;;25.40;63.10;;;;;;5019539;28;20491;-77
2022/06/25 10:51:34;;;;;;;4.17;1.97;;;25.50;63.00;;;;;;5022734;28;20468;-77
2022/06/25 10:54:04;;;;;;;4.33;1.80;;;25.50;62.90;;;;;;5022876;28;21217;-79
2022/06/25 10:56:44;;;;;;;12.37;5.07;;;25.60;62.90;;;;;;5020696;28;20474;-78
2022/06/25 10:59:31;;;;;;;7.70;3.30;;;25.70;62.60;;;;;;5016402;28;20461;-75
2022/06/25 11:02:01;;;;;;;5.07;2.60;;;25.80;62.20;;;;;;5016492;28;21004;-77
2022/06/25 11:04:29;;;;;;;4.23;1.80;;;25.80;62.00;;;;;;5013130;28;20486;-78
2022/06/25 11:07:09;;;;;;;4.87;2.03;;;25.90;61.90;;;;;;5017799;28;20457;-77
2022/06/25 11:09:37;;;;;;;7.83;1.83;;;25.90;61.80;;;;;;5010676;28;21145;-76
2022/06/25 11:12:09;;;;;;;5.13;1.90;;;26.00;61.50;;;;;;5019785;28;20445;-75
2022/06/25 11:14:37;;;;;;;3.83;1.60;;;26.00;61.20;;;;;;5003076;28;21191;-80
2022/06/25 11:17:09;;;;;;;4.87;1.37;;;26.00;60.50;;;;;;5017866;28;21341;-76
2022/06/25 11:19:41;;;;;;;5.80;1.90;;;26.10;60.30;;;;;;5016021;28;20838;-75
2022/06/25 11:22:09;;;;;;;8.20;1.40;;;26.10;60.30;;;;;;5015803;28;20468;-75
2022/06/25 11:28:47;;;;;;;3.90;1.60;;;26.20;60.20;;;;;;5005455;28;20499;-75
2022/06/25 11:30:14;;;;;;;8.13;2.50;;;26.30;60.00;;;;;;5020464;28;20468;-75
2022/06/25 11:32:45;;;;;;;4.10;1.80;;;26.30;59.90;;;;;;5017044;28;20483;-75
2022/06/25 11:35:14;;;;;;;5.50;2.17;;;26.30;59.80;;;;;;5019329;28;20462;-75
2022/06/25 11:37:42;;;;;;;4.80;1.87;;;26.40;59.90;;;;;;5016178;28;20469;-75
2022/06/25 11:40:14;;;;;;;6.00;2.43;;;26.40;59.70;;;;;;5019132;28;20465;-75
2022/06/25 11:42:44;;;;;;;4.27;1.87;;;26.40;59.50;;;;;;5021201;28;20491;-76
2022/06/25 11:45:12;;;;;;;4.80;1.70;;;26.40;59.30;;;;;;5002818;28;21309;-76
2022/06/25 11:47:40;;;;;;;4.43;1.83;;;26.40;59.30;;;;;;5014574;28;20482;-75
2022/06/25 11:50:09;;;;;;;4.30;1.90;;;26.40;59.30;;;;;;5013796;28;20923;-78
2022/06/25 11:52:42;;;;;;;5.33;2.20;;;26.30;59.40;;;;;;5022978;28;20959;-79
2022/06/25 11:55:11;;;;;;;6.73;2.20;;;26.40;59.30;;;;;;5015344;28;20452;-76
2022/06/25 11:57:44;;;;;;;4.20;1.67;;;26.40;59.30;;;;;;5001743;28;20453;-76
2022/06/25 12:00:14;;;;;;;3.90;1.60;;;26.40;59.20;;;;;;5014426;28;20464;-76
2022/06/25 12:02:43;;;;;;;4.77;1.40;;;26.40;59.20;;;;;;5012611;28;20465;-75
2022/06/25 12:05:12;;;;;;;4.03;1.67;;;26.40;59.00;;;;;;5015391;28;20474;-76
2022/06/25 12:07:45;;;;;;;4.53;1.70;;;26.40;59.00;;;;;;5010629;28;20464;-75
2022/06/25 12:10:14;;;;;;;5.80;2.00;;;26.40;58.80;;;;;;5010430;28;20477;-76
2022/06/25 12:12:44;;;;;;;5.23;1.33;;;26.40;58.80;;;;;;5012591;28;20480;-76
2022/06/25 12:15:12;;;;;;;3.63;1.47;;;26.40;58.80;;;;;;5012894;28;20985;-76
2022/06/25 12:17:46;;;;;;;4.57;1.90;;;26.30;58.90;;;;;;5013181;28;20469;-78
2022/06/25 12:20:15;;;;;;;4.57;1.83;;;26.30;59.00;;;;;;5010647;28;20465;-77
2022/06/25 12:22:52;;;;;;;6.00;1.43;;;26.30;59.10;;;;;;5019754;28;20514;-75
2022/06/25 12:25:25;;;;;;;6.90;2.27;;;26.40;59.10;;;;;;5012285;28;20469;-76
2022/06/25 12:27:54;;;;;;;6.03;2.20;;;26.50;59.20;;;;;;5018103;28;20460;-79
2022/06/25 12:30:23;;;;;;;4.50;1.90;;;26.60;59.10;;;;;;5014706;28;20452;-78
2022/06/25 12:32:52;;;;;;;5.17;1.80;;;26.80;59.00;;;;;;5012474;28;20572;-74
2022/06/25 12:35:23;;;;;;;12.23;2.50;;;26.90;58.80;;;;;;5016941;28;20454;-79
2022/06/25 12:38:26;;;;;;;4.20;1.80;;;27.00;58.60;;;;;;5018040;28;20952;-76
2022/06/25 12:41:22;;;;;;;6.43;1.93;;;27.10;58.50;;;;;;5012470;28;20474;-75
2022/06/25 12:43:51;;;;;;;4.60;1.90;;;27.20;58.50;;;;;;5022175;28;20478;-74
2022/06/25 12:46:20;;;;;;;4.60;1.80;;;27.30;58.40;;;;;;5021837;28;20486;-75
2022/06/25 12:49:00;;;;;;;5.00;1.70;;;27.40;58.20;;;;;;5018865;28;20517;-75
2022/06/25 12:59:49;;;;;;;5.23;2.00;;;27.40;57.80;;;;;;5014033;28;20427;-74
2022/06/25 13:02:17;;;;;;;4.60;1.60;;;27.40;57.80;;;;;;5021599;28;20483;-77
2022/06/25 13:04:45;;;;;;;8.43;1.63;;;27.40;57.70;;;;;;5019835;28;20494;-77
2022/06/25 13:07:14;;;;;;;4.67;1.67;;;27.50;57.80;;;;;;5018172;28;20461;-75
2022/06/25 13:09:43;;;;;;;5.50;2.03;;;27.50;57.70;;;;;;5017791;28;20482;-75
2022/06/25 13:12:25;;;;;;;6.20;2.03;;;27.50;57.40;;;;;;5017874;28;20545;-76
2022/06/25 13:14:54;;;;;;;5.00;1.30;;;27.50;57.00;;;;;;5005384;28;20467;-74
2022/06/25 13:17:22;;;;;;;4.83;1.77;;;27.50;56.70;;;;;;5018689;28;20487;-79
2022/06/25 13:27:50;;;;;;;3.90;1.07;;;27.50;56.60;;;;;;4998274;28;20431;-78
2022/06/25 13:30:19;;;;;;;6.97;1.37;;;27.50;56.50;;;;;;5018584;28;21237;-76
2022/06/25 13:33:07;;;;;;;4.17;1.50;;;27.50;56.60;;;;;;5019175;28;20519;-76